NCAR-RAP Real-Time Weather Data

Output produced by METARs form (08 May 2021  01:46 UTC)
found at http://weather.rap.ucar.edu/surface/
 
KIND 080054Z 36020G25KT 10SM FEW050 FEW075 FEW110 12/03 A2997 RMK AO2 PK WND 36029/0021 SLP150 T01170028
KIND 072354Z 34017G27KT 10SM FEW050 SCT075 SCT110 14/06 A2993 RMK AO2 PK WND 31027/2338 WSHFT 2336 RAE2259 TSE2259 SLP138 P0000 60009 T01390056 10178 20111 53004
KIND 072305Z 27003KT 10SM FEW050 SCT075 BKN110 14/09 A2991 RMK AO2 RAE2259 TSE2259 P0000 T01440089
KIND 072254Z 00000KT 10SM -TSRA FEW045CB SCT075 BKN090 14/08 A2991 RMK AO2 RAB15 TSB44 SLP130 OCNL LTGIC E TS E MOV SE P0000 T01390083
KIND 072250Z 22003KT 10SM -TSRA FEW045CB SCT075 BKN090 14/08 A2991 RMK AO2 RAB15 TSB44 OCNL LTGIC E TS E MOV SE P0000
KIND 072154Z 18007KT 10SM SCT050 SCT080 BKN100 13/07 A2992 RMK AO2 RAE35 TSE24 SLP134 P0003 T01330072
KIND 072130Z VRB05G19KT 10SM -RA SCT040 BKN055 BKN100 13/07 A2994 RMK AO2 TSE24 P0003 T01330067
KIND 072054Z 21013KT 6SM TSRA FEW025CB BKN050 BKN110 12/07 A2993 RMK AO2 PK WND 28039/2007 LTG DSNT S AND NW RAB1956 TSB42 SLP137 OCNL LTGIC W TS W MOV E P0006 60006 T01170072 56024
KIND 071954Z 24008KT 10SM FEW055 BKN075 BKN100 16/02 A2994 RMK AO2 LTG DSNT W SLP139 VCSH W-NW T01560022
KIND 071854Z 25013KT 10SM FEW055 SCT090 SCT120 17/03 A2997 RMK AO2 PK WND 26027/1813 RAB11E35 SLP148 P0000 T01720033
KIND 071754Z 26013KT 10SM BKN085 BKN120 16/02 A3000 RMK AO2 SLP160 VIRGA E T01560022 10172 20056 58012
KIND 071654Z 29007G17KT 10SM FEW050 SCT100 SCT130 16/02 A3003 RMK AO2 SLP169 T01560022
KIND 071554Z 29012G20KT 10SM FEW050 SCT110 SCT130 16/03 A3004 RMK AO2 SLP172 T01560033
KIND 071454Z 26009KT 10SM FEW095 13/04 A3004 RMK AO2 SLP172 T01280044 58002
KIND 071354Z 22005KT 10SM FEW085 11/04 A3005 RMK AO2 SLP179 T01060039
KIND 071254Z 21004KT 10SM FEW060 08/04 A3005 RMK AO2 SLP178 T00780044
KIND 071154Z 24004KT 9SM FEW060 06/04 A3004 RMK AO2 SLP176 70025 T00560039 10056 20033 53003
KIND 071054Z 24004KT 7SM BKN060 03/02 A3003 RMK AO2 SLP174 T00330022
KIND 070954Z 25004KT 7SM SCT070 BKN090 04/03 A3003 RMK AO2 SLP169 T00440033